Time;durP1;ratioP1;P1;durP2;ratioP2;P2;SDS_P1;SDS_P2;PMS_P1;PMS_P2;Temp;Humidity;BMP_temperature;BMP_pressure;BME280_temperature;BME280_humidity;BME280_pressure;Samples;Min_cycle;Max_cycle;Signal;HPM_P1;HPM_P2
2021/07/17 00:00:48;;;;;;;;;;;19.00;99.90;;;;;;5029279;28;19988;-60
2021/07/17 00:03:37;;;;;;;;;;;19.00;99.90;;;;;;5033155;28;20350;-60
2021/07/17 00:06:28;;;;;;;;;;;18.90;99.90;;;;;;5030159;28;19925;-60
2021/07/17 00:09:17;;;;;;;;;;;18.90;99.90;;;;;;5033092;28;19939;-61
2021/07/17 00:12:07;;;;;;;;;;;18.90;99.90;;;;;;5031655;28;19976;-61
2021/07/17 00:14:56;;;;;;;;;;;18.80;99.90;;;;;;5031045;28;19929;-60
2021/07/17 00:17:44;;;;;;;;;;;18.80;99.90;;;;;;5025610;28;20032;-63
2021/07/17 00:20:33;;;;;;;;;;;18.70;99.90;;;;;;5029443;28;20400;-60
2021/07/17 00:23:47;;;;;;;;;;;18.70;99.90;;;;;;5029271;28;19944;-61
2021/07/17 00:26:35;;;;;;;;;;;18.60;99.90;;;;;;5023354;28;19948;-62
2021/07/17 00:29:25;;;;;;;;;;;18.60;99.90;;;;;;5033438;28;19925;-60
2021/07/17 00:32:13;;;;;;;;;;;18.60;99.90;;;;;;5037915;28;19931;-60
2021/07/17 00:35:02;;;;;;;;;;;18.60;99.90;;;;;;5056898;28;20430;-62
2021/07/17 00:37:50;;;;;;;;;;;18.60;99.90;;;;;;5066199;28;19935;-63
2021/07/17 00:40:39;;;;;;;;;;;18.60;99.90;;;;;;5060502;28;19970;-60
2021/07/17 00:43:27;;;;;;;;;;;18.60;99.90;;;;;;5071350;28;20328;-61
2021/07/17 00:46:17;;;;;;;;;;;18.50;99.90;;;;;;5056443;28;19928;-60
2021/07/17 00:49:08;;;;;;;;;;;18.50;99.90;;;;;;5068419;28;19933;-60
2021/07/17 00:51:56;;;;;;;;;;;18.50;99.90;;;;;;5063188;28;19924;-61
2021/07/17 00:54:45;;;;;;;;;;;18.40;99.90;;;;;;5070747;28;20012;-60
2021/07/17 00:57:34;;;;;;;;;;;18.40;99.90;;;;;;5070766;28;19932;-63
2021/07/17 01:00:23;;;;;;;;;;;18.40;99.90;;;;;;5052502;28;19933;-61
2021/07/17 01:03:37;;;;;;;;;;;18.30;99.90;;;;;;5082683;28;20358;-61
2021/07/17 01:06:26;;;;;;;;;;;18.20;99.90;;;;;;5060743;28;19990;-60
2021/07/17 01:09:14;;;;;;;;;;;18.20;99.90;;;;;;5053097;28;20292;-60
2021/07/17 01:12:03;;;;;;;;;;;18.20;99.90;;;;;;5065836;28;20426;-60
2021/07/17 01:14:52;;;;;;;;;;;18.20;99.90;;;;;;5050264;28;20311;-61
2021/07/17 01:17:40;;;;;;;;;;;18.20;99.90;;;;;;5054108;28;19938;-60
2021/07/17 01:20:32;;;;;;;;;;;18.20;99.90;;;;;;5069584;28;19925;-61
2021/07/17 01:23:48;;;;;;;;;;;18.20;99.90;;;;;;5066509;28;19925;-60
2021/07/17 01:26:36;;;;;;;;;;;18.10;99.90;;;;;;5065018;28;20392;-60
2021/07/17 01:29:25;;;;;;;;;;;18.10;99.90;;;;;;5063843;28;20004;-60
2021/07/17 01:32:14;;;;;;;;;;;18.10;99.90;;;;;;5061313;28;20360;-60
2021/07/17 01:35:02;;;;;;;;;;;18.00;99.90;;;;;;5062134;28;20030;-60
2021/07/17 01:37:50;;;;;;;;;;;18.00;99.90;;;;;;5051508;28;20262;-60
2021/07/17 01:40:40;;;;;;;;;;;18.10;99.90;;;;;;5070154;28;19925;-60
2021/07/17 01:43:28;;;;;;;;;;;18.00;99.90;;;;;;5067384;28;19932;-61
2021/07/17 01:46:17;;;;;;;;;;;18.00;99.90;;;;;;5041616;28;19933;-60
2021/07/17 01:49:06;;;;;;;;;;;18.00;99.90;;;;;;5050937;28;19925;-60
2021/07/17 01:51:54;;;;;;;;;;;17.90;99.90;;;;;;5050387;28;19932;-61
2021/07/17 01:54:43;;;;;;;;;;;17.90;99.90;;;;;;5052331;28;19925;-60
2021/07/17 01:57:33;;;;;;;;;;;17.90;99.90;;;;;;5051361;28;20015;-60
2021/07/17 02:00:22;;;;;;;;;;;17.90;99.90;;;;;;5046523;28;21087;-61
2021/07/17 02:03:37;;;;;;;;;;;17.90;99.90;;;;;;5064099;28;20288;-60
2021/07/17 02:06:27;;;;;;;;;;;17.80;99.90;;;;;;5062367;28;19971;-60
2021/07/17 02:09:15;;;;;;;;;;;17.80;99.90;;;;;;5069443;28;20018;-61
2021/07/17 02:12:04;;;;;;;;;;;17.80;99.90;;;;;;5069940;28;19932;-61
2021/07/17 02:14:55;;;;;;;;;;;17.70;99.90;;;;;;5065467;28;20674;-64
2021/07/17 02:17:43;;;;;;;;;;;17.80;99.90;;;;;;5019227;28;19932;-61
2021/07/17 02:20:32;;;;;;;;;;;17.70;99.90;;;;;;5016384;28;19926;-61
2021/07/17 02:23:46;;;;;;;;;;;17.70;99.90;;;;;;5015624;28;19936;-61
2021/07/17 02:26:34;;;;;;;;;;;17.70;99.90;;;;;;5025492;28;19925;-60
2021/07/17 02:29:23;;;;;;;;;;;17.70;99.90;;;;;;5018677;28;19929;-61
2021/07/17 02:32:12;;;;;;;;;;;17.60;99.90;;;;;;5022849;28;20353;-60
2021/07/17 02:35:02;;;;;;;;;;;17.70;99.90;;;;;;5031058;28;19937;-61
2021/07/17 02:37:50;;;;;;;;;;;17.70;99.90;;;;;;5028505;28;19936;-60
2021/07/17 02:40:39;;;;;;;;;;;17.70;99.90;;;;;;5034434;28;19925;-60
2021/07/17 02:43:27;;;;;;;;;;;17.70;99.90;;;;;;5031730;28;19956;-61
2021/07/17 02:46:16;;;;;;;;;;;17.70;99.90;;;;;;5026871;28;19932;-60
2021/07/17 02:49:07;;;;;;;;;;;17.70;99.90;;;;;;5035356;28;19925;-60
2021/07/17 02:51:55;;;;;;;;;;;17.80;99.90;;;;;;5014330;28;19932;-61
2021/07/17 02:54:44;;;;;;;;;;;17.80;99.90;;;;;;5021335;28;20064;-63
2021/07/17 02:57:33;;;;;;;;;;;17.90;99.90;;;;;;5033918;28;20000;-60
2021/07/17 03:00:22;;;;;;;;;;;17.90;99.90;;;;;;5027951;28;19925;-61
2021/07/17 03:03:16;;;;;;;;;;;18.00;99.90;;;;;;5054273;28;19935;-60
2021/07/17 03:06:06;;;;;;;;;;;18.00;99.90;;;;;;5050932;28;19925;-60
2021/07/17 03:12:07;;;;;;;;;;;18.10;99.90;;;;;;5049698;28;19933;-60
2021/07/17 03:14:56;;;;;;;;;;;18.20;99.90;;;;;;5053130;28;19925;-61
2021/07/17 03:17:44;;;;;;;;;;;18.20;99.90;;;;;;5054588;28;20252;-63
2021/07/17 03:20:32;;;;;;;;;;;18.20;99.90;;;;;;5054447;28;20396;-60
2021/07/17 03:23:48;;;;;;;;;;;18.20;99.90;;;;;;5055978;28;19925;-62
2021/07/17 03:26:37;;;;;;;;;;;18.30;99.90;;;;;;5055832;28;19939;-60
2021/07/17 03:29:25;;;;;;;;;;;18.30;99.90;;;;;;5055522;28;19933;-63
2021/07/17 03:32:14;;;;;;;;;;;18.30;99.90;;;;;;5049038;28;20383;-60
2021/07/17 03:35:03;;;;;;;;;;;18.20;99.90;;;;;;5055254;28;20396;-63
2021/07/17 03:37:52;;;;;;;;;;;18.20;99.90;;;;;;5054760;28;19929;-61
2021/07/17 03:40:41;;;;;;;;;;;18.20;99.90;;;;;;5051446;28;20268;-60
2021/07/17 03:43:29;;;;;;;;;;;18.20;99.90;;;;;;5053531;28;19940;-61
2021/07/17 03:46:18;;;;;;;;;;;18.30;99.90;;;;;;5045760;28;19929;-61
2021/07/17 03:49:06;;;;;;;;;;;18.30;99.90;;;;;;5051825;28;19931;-62
2021/07/17 03:51:54;;;;;;;;;;;18.30;99.90;;;;;;5052756;28;20256;-60
2021/07/17 03:54:43;;;;;;;;;;;18.40;99.90;;;;;;5054813;28;20323;-61
2021/07/17 03:57:33;;;;;;;;;;;18.40;99.90;;;;;;5070053;28;19995;-61
2021/07/17 04:00:22;;;;;;;;;;;18.40;99.90;;;;;;5066410;28;19975;-61
2021/07/17 04:03:10;;;;;;;;;;;18.50;99.90;;;;;;5072704;28;19925;-61
2021/07/17 04:05:59;;;;;;;;;;;18.50;99.90;;;;;;5075113;28;19924;-61
2021/07/17 04:08:48;;;;;;;;;;;18.50;99.90;;;;;;5072987;28;19928;-61
2021/07/17 04:11:36;;;;;;;;;;;18.60;99.90;;;;;;5088401;28;19995;-62
2021/07/17 04:14:29;;;;;;;;;;;18.60;99.90;;;;;;5075509;28;19925;-61
2021/07/17 04:17:17;;;;;;;;;;;18.60;99.90;;;;;;5069515;28;19912;-60
2021/07/17 04:20:06;;;;;;;;;;;18.60;99.90;;;;;;5075596;28;19925;-62
2021/07/17 04:22:54;;;;;;;;;;;18.60;99.90;;;;;;5063801;28;20307;-60
2021/07/17 04:25:43;;;;;;;;;;;18.60;99.90;;;;;;5053257;28;19925;-60
2021/07/17 04:28:31;;;;;;;;;;;18.60;99.90;;;;;;5049380;28;20281;-60
2021/07/17 04:31:27;;;;;;;;;;;18.70;99.90;;;;;;5045679;28;19961;-60
2021/07/17 04:34:16;;;;;;;;;;;18.70;99.90;;;;;;5053450;28;19932;-61
2021/07/17 04:37:05;;;;;;;;;;;18.70;99.90;;;;;;5053842;28;19964;-61
2021/07/17 04:39:54;;;;;;;;;;;18.70;99.90;;;;;;5051187;28;19931;-61
2021/07/17 04:42:42;;;;;;;;;;;18.70;99.90;;;;;;5051773;28;20280;-61
2021/07/17 04:45:30;;;;;;;;;;;18.60;99.90;;;;;;5044112;28;20380;-61
2021/07/17 04:48:20;;;;;;;;;;;18.60;99.90;;;;;;5051018;28;20039;-61
2021/07/17 04:51:08;;;;;;;;;;;18.60;99.90;;;;;;5043645;28;19932;-61
2021/07/17 04:53:57;;;;;;;;;;;18.50;99.90;;;;;;5048269;28;19936;-61
2021/07/17 04:56:45;;;;;;;;;;;18.70;99.90;;;;;;5049547;28;19932;-61
2021/07/17 04:59:34;;;;;;;;;;;18.70;99.90;;;;;;5043379;28;19924;-60
2021/07/17 05:02:22;;;;;;;;;;;18.60;99.90;;;;;;5045051;28;19962;-61
2021/07/17 05:05:13;;;;;;;;;;;18.60;99.90;;;;;;5049455;28;19932;-61
2021/07/17 05:08:01;;;;;;;;;;;18.60;99.90;;;;;;5044705;28;19960;-61
2021/07/17 05:10:49;;;;;;;;;;;18.70;99.90;;;;;;5045977;28;19932;-61
2021/07/17 05:13:38;;;;;;;;;;;18.70;99.90;;;;;;5048894;28;19925;-61
2021/07/17 05:16:27;;;;;;;;;;;18.70;99.90;;;;;;5043386;28;19924;-61
2021/07/17 05:19:17;;;;;;;;;;;18.80;99.90;;;;;;5048368;28;20443;-60
2021/07/17 05:22:07;;;;;;;;;;;18.80;99.90;;;;;;5051439;28;19931;-61
2021/07/17 05:24:55;;;;;;;;;;;18.80;99.90;;;;;;5050263;28;19960;-61
2021/07/17 05:27:43;;;;;;;;;;;18.80;99.90;;;;;;5052224;28;20060;-61
2021/07/17 05:30:32;;;;;;;;;;;18.70;99.90;;;;;;5041400;28;19947;-61
2021/07/17 05:33:21;;;;;;;;;;;18.70;99.90;;;;;;5048360;28;20323;-61
2021/07/17 05:36:11;;;;;;;;;;;18.70;99.90;;;;;;5009554;28;19925;-60
2021/07/17 05:39:00;;;;;;;;;;;18.70;99.90;;;;;;5025621;28;19935;-61
2021/07/17 05:41:49;;;;;;;;;;;18.70;99.90;;;;;;5022280;28;20057;-60
2021/07/17 05:44:37;;;;;;;;;;;18.70;99.90;;;;;;5022080;28;19947;-61
2021/07/17 05:47:26;;;;;;;;;;;18.80;99.90;;;;;;5016041;28;19931;-61
2021/07/17 05:50:14;;;;;;;;;;;18.80;99.90;;;;;;5021256;28;19926;-60
2021/07/17 05:53:06;;;;;;;;;;;18.80;99.90;;;;;;5018588;28;19929;-62
2021/07/17 05:56:00;;;;;;;;;;;18.80;99.90;;;;;;5017895;28;20344;-61
2021/07/17 05:58:48;;;;;;;;;;;18.80;99.90;;;;;;5020651;28;19940;-60
2021/07/17 06:01:36;;;;;;;;;;;18.80;99.90;;;;;;5004664;28;19937;-60
2021/07/17 06:04:26;;;;;;;;;;;18.80;99.90;;;;;;5011090;28;19929;-60
2021/07/17 06:07:14;;;;;;;;;;;18.70;99.90;;;;;;5002674;28;19934;-61
2021/07/17 06:10:03;;;;;;;;;;;18.80;99.90;;;;;;5014749;28;20004;-61
2021/07/17 06:12:53;;;;;;;;;;;18.80;99.90;;;;;;5008541;28;19945;-62
2021/07/17 06:16:06;;;;;;;;;;;18.90;99.90;;;;;;5012941;28;19980;-61
2021/07/17 06:18:54;;;;;;;;;;;19.00;99.90;;;;;;5024101;28;20444;-61
2021/07/17 06:21:43;;;;;;;;;;;18.90;99.90;;;;;;5028872;28;19929;-62
2021/07/17 06:24:31;;;;;;;;;;;18.90;99.90;;;;;;5035156;28;19933;-61
2021/07/17 06:27:20;;;;;;;;;;;18.90;99.90;;;;;;5021949;28;19926;-61
2021/07/17 06:30:10;;;;;;;;;;;19.00;99.90;;;;;;5015029;28;20332;-63
2021/07/17 06:32:58;;;;;;;;;;;19.20;99.90;;;;;;5028568;28;20029;-61
2021/07/17 06:35:47;;;;;;;;;;;19.20;99.90;;;;;;5045438;28;20400;-62
2021/07/17 06:38:35;;;;;;;;;;;19.20;99.90;;;;;;5036112;28;19925;-61
2021/07/17 06:41:24;;;;;;;;;;;19.20;99.90;;;;;;5027279;28;19940;-61
2021/07/17 06:44:12;;;;;;;;;;;19.30;99.90;;;;;;5020809;28;20056;-61
2021/07/17 06:47:02;;;;;;;;;;;19.30;99.90;;;;;;5032010;28;19955;-61
2021/07/17 06:49:50;;;;;;;;;;;19.30;99.90;;;;;;5039862;28;19960;-61
2021/07/17 06:52:39;;;;;;;;;;;19.50;99.90;;;;;;5059969;28;19962;-61
2021/07/17 06:55:28;;;;;;;;;;;19.50;99.90;;;;;;5035384;28;19948;-61
2021/07/17 06:58:17;;;;;;;;;;;19.60;99.90;;;;;;5034422;28;19936;-61
2021/07/17 07:01:05;;;;;;;;;;;19.50;99.90;;;;;;5018474;28;19925;-61
2021/07/17 07:03:56;;;;;;;;;;;19.50;99.90;;;;;;5034384;28;20023;-60
2021/07/17 07:06:45;;;;;;;;;;;19.40;99.90;;;;;;5033915;28;19932;-61
2021/07/17 07:09:33;;;;;;;;;;;19.40;99.90;;;;;;5036690;28;19929;-61
2021/07/17 07:12:22;;;;;;;;;;;19.30;99.90;;;;;;5017878;28;19933;-63
2021/07/17 07:15:11;;;;;;;;;;;19.40;99.90;;;;;;5030256;28;20020;-61
2021/07/17 07:17:59;;;;;;;;;;;19.30;99.90;;;;;;5031732;28;19949;-61
2021/07/17 07:20:50;;;;;;;;;;;19.30;99.90;;;;;;5034070;28;19980;-61
2021/07/17 07:23:38;;;;;;;;;;;19.20;99.90;;;;;;5033345;28;20059;-61
2021/07/17 07:26:26;;;;;;;;;;;19.20;99.90;;;;;;5027454;28;20015;-61
2021/07/17 07:29:15;;;;;;;;;;;19.20;99.90;;;;;;5033829;28;20361;-61
2021/07/17 07:32:04;;;;;;;;;;;19.20;99.90;;;;;;5022210;28;19982;-61
2021/07/17 07:34:53;;;;;;;;;;;19.30;99.90;;;;;;5035026;28;19925;-60
2021/07/17 07:37:42;;;;;;;;;;;19.40;99.90;;;;;;5016077;28;20270;-61
2021/07/17 07:40:31;;;;;;;;;;;19.50;99.90;;;;;;5035204;28;19948;-61
2021/07/17 07:43:19;;;;;;;;;;;19.60;99.90;;;;;;5043802;28;20054;-63
2021/07/17 07:46:07;;;;;;;;;;;19.80;99.90;;;;;;5022018;28;19929;-63
2021/07/17 07:48:55;;;;;;;;;;;19.80;99.90;;;;;;5037874;28;19925;-61
2021/07/17 07:51:44;;;;;;;;;;;19.80;99.90;;;;;;5030037;28;19937;-61
2021/07/17 07:54:34;;;;;;;;;;;20.00;99.90;;;;;;5034304;28;19925;-61
2021/07/17 07:57:22;;;;;;;;;;;20.20;99.90;;;;;;5032052;28;19925;-64
2021/07/17 08:00:12;;;;;;;;;;;20.40;99.90;;;;;;5011462;28;20366;-61
2021/07/17 08:03:22;;;;;;;;;;;20.40;99.90;;;;;;5022665;28;20173;-61
2021/07/17 08:06:11;;;;;;;;;;;20.30;99.90;;;;;;5029232;28;19929;-62
2021/07/17 08:08:59;;;;;;;;;;;20.30;99.90;;;;;;5029372;28;19925;-61
2021/07/17 08:11:49;;;;;;;;;;;20.40;99.90;;;;;;5025328;28;19936;-61
2021/07/17 08:14:38;;;;;;;;;;;20.40;99.90;;;;;;5029682;28;19925;-61
2021/07/17 08:17:27;;;;;;;;;;;20.50;99.90;;;;;;5029430;28;19955;-63
2021/07/17 08:20:16;;;;;;;;;;;20.70;99.90;;;;;;5031361;28;20478;-62
2021/07/17 08:23:05;;;;;;;;;;;20.80;99.90;;;;;;5036073;28;19970;-61
2021/07/17 08:25:53;;;;;;;;;;;20.80;99.90;;;;;;5029630;28;19928;-62
2021/07/17 08:28:43;;;;;;;;;;;21.10;99.90;;;;;;5022583;28;19925;-62
2021/07/17 08:31:32;;;;;;;;;;;21.30;99.90;;;;;;5017947;28;19932;-62
2021/07/17 08:34:21;;;;;;;;;;;21.60;99.90;;;;;;5018533;28;20373;-62
2021/07/17 08:37:09;;;;;;;;;;;21.80;99.90;;;;;;5027459;28;19925;-62
2021/07/17 08:39:57;;;;;;;;;;;21.90;99.90;;;;;;5029949;28;20065;-62
2021/07/17 08:43:11;;;;;;;;;;;22.10;99.90;;;;;;5031199;28;19936;-62
2021/07/17 08:46:24;;;;;;;;;;;22.20;99.90;;;;;;5021193;28;20381;-62
2021/07/17 08:49:18;;;;;;;;;;;22.30;99.90;;;;;;5017750;28;21355;-62
2021/07/17 08:52:07;;;;;;;;;;;22.10;99.90;;;;;;5030406;28;20378;-62
2021/07/17 08:55:02;;;;;;;;;;;22.10;99.90;;;;;;5030129;28;19929;-62
2021/07/17 08:57:51;;;;;;;;;;;21.80;99.90;;;;;;5032181;28;19939;-62
2021/07/17 09:00:41;;;;;;;;;;;21.50;99.90;;;;;;5025952;28;19932;-61
2021/07/17 09:03:36;;;;;;;;;;;21.30;99.90;;;;;;5028856;28;19936;-62
2021/07/17 09:06:25;;;;;;;;;;;21.20;99.90;;;;;;5030810;28;19940;-62
2021/07/17 09:09:27;;;;;;;;;;;21.10;99.90;;;;;;5031605;28;19962;-62
2021/07/17 09:12:22;;;;;;;;;;;21.20;99.90;;;;;;5034819;28;19936;-62
2021/07/17 09:15:17;;;;;;;;;;;21.40;99.90;;;;;;5032663;28;19944;-63
2021/07/17 09:18:06;;;;;;;;;;;21.60;99.90;;;;;;5036004;28;19962;-62
2021/07/17 09:20:57;;;;;;;;;;;21.90;99.90;;;;;;5033930;28;19950;-62
2021/07/17 09:23:47;;;;;;;;;;;22.20;99.90;;;;;;5035371;28;20258;-62
2021/07/17 09:26:37;;;;;;;;;;;22.30;99.90;;;;;;5034899;28;19936;-63
2021/07/17 09:29:34;;;;;;;;;;;22.80;99.90;;;;;;5033726;28;19929;-62
2021/07/17 09:32:23;;;;;;;;;;;23.30;99.90;;;;;;5020914;28;19929;-62
2021/07/17 09:35:18;;;;;;;;;;;24.00;99.90;;;;;;5027127;28;19932;-62
2021/07/17 09:38:09;;;;;;;;;;;24.40;99.90;;;;;;5032019;28;20012;-62
2021/07/17 09:40:59;;;;;;;;;;;24.70;99.90;;;;;;5032067;28;20411;-62
2021/07/17 09:43:59;;;;;;;;;;;24.40;99.90;;;;;;5039730;28;19932;-63
2021/07/17 09:46:48;;;;;;;;;;;24.20;99.90;;;;;;5048645;28;19964;-62
2021/07/17 09:49:36;;;;;;;;;;;23.90;99.90;;;;;;5037201;28;19929;-62
2021/07/17 09:52:25;;;;;;;;;;;23.60;99.90;;;;;;5037128;28;19934;-62
2021/07/17 09:55:16;;;;;;;;;;;23.10;99.90;;;;;;5035469;28;19932;-62
2021/07/17 09:58:09;;;;;;;;;;;22.80;99.90;;;;;;5037379;28;20007;-62
2021/07/17 10:01:11;;;;;;;;;;;22.30;99.90;;;;;;5025419;28;19932;-62
2021/07/17 10:04:01;;;;;;;;;;;22.20;99.90;;;;;;5032967;28;19955;-62
2021/07/17 10:06:57;;;;;;;;;;;22.00;99.90;;;;;;5029946;28;19925;-62
2021/07/17 10:09:49;;;;;;;;;;;21.80;99.90;;;;;;5037887;28;19947;-62
2021/07/17 10:12:40;;;;;;;;;;;21.90;99.90;;;;;;5039037;28;19929;-62
2021/07/17 10:15:31;;;;;;;;;;;22.10;99.90;;;;;;5023716;28;19925;-62
2021/07/17 10:18:25;;;;;;;;;;;22.30;99.90;;;;;;5033846;28;20262;-62
2021/07/17 10:21:14;;;;;;;;;;;22.30;99.90;;;;;;5034338;28;19964;-62
2021/07/17 10:24:03;;;;;;;;;;;22.30;99.90;;;;;;5033894;28;20439;-62
2021/07/17 10:26:52;;;;;;;;;;;22.30;99.90;;;;;;5033562;28;19932;-61
2021/07/17 10:29:42;;;;;;;;;;;22.20;99.90;;;;;;5032345;28;19961;-62
2021/07/17 10:32:31;;;;;;;;;;;22.40;99.90;;;;;;5030592;28;19932;-61
2021/07/17 10:35:20;;;;;;;;;;;22.40;99.90;;;;;;5013829;28;19925;-61
2021/07/17 10:38:11;;;;;;;;;;;22.50;99.90;;;;;;5016029;28;19925;-62
2021/07/17 10:41:00;;;;;;;;;;;22.40;99.90;;;;;;5030007;28;19925;-62
2021/07/17 10:43:52;;;;;;;;;;;22.40;99.90;;;;;;5027410;28;19936;-61
2021/07/17 10:46:42;;;;;;;;;;;22.10;99.90;;;;;;5028338;28;19932;-62
2021/07/17 10:49:35;;;;;;;;;;;22.10;99.90;;;;;;5046315;28;19913;-62
2021/07/17 10:52:34;;;;;;;;;;;22.10;99.90;;;;;;5042722;28;19933;-61
2021/07/17 10:55:26;;;;;;;;;;;22.00;99.90;;;;;;5050378;28;20015;-61
2021/07/17 10:58:33;;;;;;;;;;;21.90;99.90;;;;;;5048376;28;19925;-62
2021/07/17 11:01:21;;;;;;;;;;;22.00;99.90;;;;;;5027393;28;19932;-61
2021/07/17 11:04:30;;;;;;;;;;;21.90;99.90;;;;;;5034901;28;19964;-61
2021/07/17 11:10:52;;;;;;;;;;;21.80;99.90;;;;;;5032518;28;20404;-64
2021/07/17 11:13:41;;;;;;;;;;;21.70;99.90;;;;;;5029584;28;19936;-61
2021/07/17 11:16:42;;;;;;;;;;;21.70;99.90;;;;;;5027613;28;19925;-62
2021/07/17 11:19:32;;;;;;;;;;;21.80;99.90;;;;;;5029561;28;19925;-61
2021/07/17 11:22:20;;;;;;;;;;;21.90;99.90;;;;;;5030175;28;20416;-62
2021/07/17 11:25:09;;;;;;;;;;;21.80;99.90;;;;;;5031810;28;19932;-62
2021/07/17 11:27:57;;;;;;;;;;;21.90;99.90;;;;;;5029104;28;20011;-62
2021/07/17 11:30:46;;;;;;;;;;;21.90;99.90;;;;;;5023079;28;19929;-62
2021/07/17 11:33:34;;;;;;;;;;;21.80;99.90;;;;;;5030027;28;19932;-62
2021/07/17 11:36:26;;;;;;;;;;;21.80;99.90;;;;;;5026429;28;19925;-62
2021/07/17 11:39:16;;;;;;;;;;;21.90;99.90;;;;;;5026929;28;20015;-62
2021/07/17 11:42:05;;;;;;;;;;;21.90;99.90;;;;;;5035184;28;19958;-62
2021/07/17 11:44:55;;;;;;;;;;;21.90;99.90;;;;;;5031928;28;19967;-62
2021/07/17 11:47:44;;;;;;;;;;;21.90;99.90;;;;;;5032686;28;20409;-62
2021/07/17 11:50:32;;;;;;;;;;;21.90;99.90;;;;;;5028498;28;19925;-62
2021/07/17 11:53:22;;;;;;;;;;;21.90;99.90;;;;;;5027687;28;20388;-62
2021/07/17 11:56:11;;;;;;;;;;;21.80;99.90;;;;;;5029217;28;19970;-62
2021/07/17 11:59:11;;;;;;;;;;;21.70;99.90;;;;;;5022435;28;19925;-62
2021/07/17 12:02:00;;;;;;;;;;;21.70;99.90;;;;;;5021575;28;20053;-62
2021/07/17 12:05:15;;;;;;;;;;;21.80;99.90;;;;;;5022862;28;19932;-61
2021/07/17 12:08:04;;;;;;;;;;;21.70;99.90;;;;;;5028956;28;19925;-62
2021/07/17 12:10:54;;;;;;;;;;;21.70;99.90;;;;;;5025491;28;19992;-62
2021/07/17 12:13:42;;;;;;;;;;;21.70;99.90;;;;;;5027884;28;19996;-62
2021/07/17 12:16:31;;;;;;;;;;;21.60;99.90;;;;;;5022023;28;19930;-62
2021/07/17 12:19:19;;;;;;;;;;;21.60;99.90;;;;;;5030939;28;20067;-62
2021/07/17 12:22:08;;;;;;;;;;;21.50;99.90;;;;;;5031369;28;20258;-62
2021/07/17 12:25:07;;;;;;;;;;;21.50;99.90;;;;;;5029065;28;20473;-62
2021/07/17 12:27:59;;;;;;;;;;;21.60;99.90;;;;;;5027653;28;19929;-62
2021/07/17 12:30:48;;;;;;;;;;;21.60;99.90;;;;;;5032450;28;19929;-62
2021/07/17 12:34:09;;;;;;;;;;;21.70;99.90;;;;;;5032597;28;19925;-62
2021/07/17 12:36:57;;;;;;;;;;;22.00;99.90;;;;;;5044322;28;20011;-62
2021/07/17 12:39:46;;;;;;;;;;;22.40;99.90;;;;;;5042365;28;19937;-65
2021/07/17 12:42:41;;;;;;;;;;;22.60;99.90;;;;;;5052051;28;19925;-62
2021/07/17 12:45:31;;;;;;;;;;;22.70;99.90;;;;;;5043710;28;20062;-62
2021/07/17 12:48:20;;;;;;;;;;;22.80;99.90;;;;;;5042467;28;19929;-62
2021/07/17 12:51:12;;;;;;;;;;;22.70;99.90;;;;;;5048981;28;19925;-62
2021/07/17 12:54:02;;;;;;;;;;;22.60;99.90;;;;;;5047824;28;19925;-61
2021/07/17 12:57:15;;;;;;;;;;;22.50;99.90;;;;;;5047525;28;20421;-62
2021/07/17 13:00:04;;;;;;;;;;;22.50;99.90;;;;;;5053749;28;20373;-63
2021/07/17 13:02:54;;;;;;;;;;;22.60;99.90;;;;;;5051344;28;20368;-62
2021/07/17 13:05:45;;;;;;;;;;;22.60;99.90;;;;;;5044705;28;20408;-63
2021/07/17 13:08:33;;;;;;;;;;;22.70;99.90;;;;;;5041603;28;20019;-63
2021/07/17 13:11:28;;;;;;;;;;;22.70;99.90;;;;;;5035450;28;19976;-62
2021/07/17 13:14:22;;;;;;;;;;;22.80;99.90;;;;;;5040111;28;19933;-63
2021/07/17 13:17:13;;;;;;;;;;;22.90;99.90;;;;;;5043189;28;19928;-62
2021/07/17 13:20:04;;;;;;;;;;;22.80;99.90;;;;;;5041958;28;19935;-62
2021/07/17 13:23:00;;;;;;;;;;;22.60;99.90;;;;;;5046106;28;20338;-62
2021/07/17 13:25:48;;;;;;;;;;;22.70;99.90;;;;;;5040117;28;19929;-62
2021/07/17 13:28:37;;;;;;;;;;;22.90;99.90;;;;;;5051298;28;20365;-61
2021/07/17 13:31:29;;;;;;;;;;;22.80;99.90;;;;;;5043124;28;19925;-61
2021/07/17 13:34:19;;;;;;;;;;;22.80;99.90;;;;;;5050229;28;19933;-61
2021/07/17 13:37:12;;;;;;;;;;;22.90;99.90;;;;;;5034717;28;19925;-61
2021/07/17 13:40:00;;;;;;;;;;;22.90;99.90;;;;;;5039924;28;19929;-61
2021/07/17 13:42:49;;;;;;;;;;;22.90;99.90;;;;;;5043395;28;20343;-61
2021/07/17 13:45:38;;;;;;;;;;;23.00;99.90;;;;;;5032523;28;19929;-61
2021/07/17 13:48:28;;;;;;;;;;;23.10;99.90;;;;;;5058623;28;20424;-61
2021/07/17 13:51:17;;;;;;;;;;;23.10;99.90;;;;;;5059817;28;19960;-61
2021/07/17 13:57:20;;;;;;;;;;;23.00;99.90;;;;;;5052155;28;20377;-61
2021/07/17 14:00:10;;;;;;;;;;;22.80;99.90;;;;;;5046612;28;19929;-61
2021/07/17 14:03:42;;;;;;;;;;;22.60;99.90;;;;;;5050266;28;19909;-62
2021/07/17 14:06:31;;;;;;;;;;;23.00;99.90;;;;;;5047241;28;19921;-62
2021/07/17 14:09:21;;;;;;;;;;;23.30;99.90;;;;;;5051998;28;20028;-62
2021/07/17 14:12:09;;;;;;;;;;;23.70;99.90;;;;;;5032625;28;19956;-62
2021/07/17 14:14:58;;;;;;;;;;;23.70;99.90;;;;;;5031923;28;19932;-61
2021/07/17 14:17:47;;;;;;;;;;;23.60;99.90;;;;;;5039809;28;19924;-61
2021/07/17 14:20:35;;;;;;;;;;;23.50;99.90;;;;;;5030307;28;19925;-60
2021/07/17 14:23:49;;;;;;;;;;;23.30;99.90;;;;;;5035748;28;19933;-61
2021/07/17 14:26:39;;;;;;;;;;;23.20;99.90;;;;;;5041458;28;19940;-60
2021/07/17 14:29:27;;;;;;;;;;;23.00;99.90;;;;;;5036488;28;19951;-61
2021/07/17 14:32:16;;;;;;;;;;;22.90;99.90;;;;;;5023983;28;19969;-60
2021/07/17 14:35:05;;;;;;;;;;;22.70;99.90;;;;;;5035399;28;20309;-60
2021/07/17 14:37:54;;;;;;;;;;;22.70;99.90;;;;;;5051632;28;19978;-61
2021/07/17 14:40:42;;;;;;;;;;;22.70;99.90;;;;;;5053800;28;20015;-60
2021/07/17 14:43:32;;;;;;;;;;;22.70;99.90;;;;;;5052929;28;20030;-60
2021/07/17 14:46:21;;;;;;;;;;;22.90;99.90;;;;;;5042829;28;20066;-60
2021/07/17 14:49:09;;;;;;;;;;;23.00;99.90;;;;;;5036530;28;19936;-60
2021/07/17 14:51:58;;;;;;;;;;;23.00;99.90;;;;;;5048053;28;20299;-60
2021/07/17 14:54:47;;;;;;;;;;;23.10;99.90;;;;;;5039446;28;20019;-60
2021/07/17 14:57:36;;;;;;;;;;;23.10;99.90;;;;;;5040364;28;19925;-60
2021/07/17 15:03:40;;;;;;;;;;;23.00;99.90;;;;;;5049276;28;20314;-60
2021/07/17 15:06:30;;;;;;;;;;;23.00;99.90;;;;;;5048387;28;19929;-60
2021/07/17 15:09:23;;;;;;;;;;;22.90;99.90;;;;;;5041711;28;19939;-61
2021/07/17 15:12:12;;;;;;;;;;;22.90;99.90;;;;;;5038500;28;20063;-60
2021/07/17 15:15:00;;;;;;;;;;;22.90;99.90;;;;;;5048199;28;19925;-61
2021/07/17 15:17:51;;;;;;;;;;;22.90;99.90;;;;;;5033242;28;19939;-63
2021/07/17 15:23:52;;;;;;;;;;;22.80;99.90;;;;;;5051583;28;19968;-61
2021/07/17 15:26:41;;;;;;;;;;;23.00;99.90;;;;;;5040704;28;19936;-61
2021/07/17 15:29:30;;;;;;;;;;;23.10;99.90;;;;;;5042023;28;19929;-60
2021/07/17 15:32:18;;;;;;;;;;;23.10;99.90;;;;;;5043751;28;19924;-61
2021/07/17 15:35:09;;;;;;;;;;;23.20;99.90;;;;;;5055272;28;19936;-61
2021/07/17 15:37:58;;;;;;;;;;;23.20;99.90;;;;;;5047715;28;19925;-60
2021/07/17 15:40:46;;;;;;;;;;;23.00;99.90;;;;;;5044259;28;19925;-60
2021/07/17 15:43:35;;;;;;;;;;;23.10;99.90;;;;;;5033876;28;19925;-61
2021/07/17 15:46:23;;;;;;;;;;;23.20;99.90;;;;;;5028868;28;20265;-60
2021/07/17 15:49:12;;;;;;;;;;;23.20;99.90;;;;;;5036890;28;19929;-61
2021/07/17 15:52:02;;;;;;;;;;;23.20;99.90;;;;;;5031501;28;19926;-61
2021/07/17 15:54:52;;;;;;;;;;;23.40;99.90;;;;;;5030688;28;19930;-62
2021/07/17 15:57:40;;;;;;;;;;;23.70;99.90;;;;;;5039956;28;19930;-63
2021/07/17 16:00:53;;;;;;;;;;;23.60;99.90;;;;;;5016947;28;20238;-61
2021/07/17 16:03:42;;;;;;;;;;;23.40;99.90;;;;;;5033347;28;19999;-61
2021/07/17 16:09:45;;;;;;;;;;;23.30;99.90;;;;;;5041308;28;20016;-61
2021/07/17 16:12:34;;;;;;;;;;;23.00;99.90;;;;;;5023981;28;19936;-60
2021/07/17 16:15:22;;;;;;;;;;;22.80;99.90;;;;;;5017254;28;20051;-61
2021/07/17 16:18:11;;;;;;;;;;;22.80;99.90;;;;;;5035500;28;19986;-61
2021/07/17 16:20:59;;;;;;;;;;;22.90;99.90;;;;;;5034136;28;20015;-61
2021/07/17 16:23:48;;;;;;;;;;;23.30;99.90;;;;;;5030957;28;20038;-61
2021/07/17 16:26:38;;;;;;;;;;;23.40;99.90;;;;;;5046742;28;19994;-61
2021/07/17 16:29:26;;;;;;;;;;;23.40;99.90;;;;;;5023734;28;19975;-61
2021/07/17 16:32:15;;;;;;;;;;;23.30;99.90;;;;;;5028914;28;20330;-61
2021/07/17 16:35:04;;;;;;;;;;;23.30;99.90;;;;;;5022465;28;19944;-61
2021/07/17 16:37:53;;;;;;;;;;;23.30;99.90;;;;;;5036644;28;19991;-61
2021/07/17 16:40:42;;;;;;;;;;;23.20;99.90;;;;;;5035243;28;19931;-61
2021/07/17 16:43:32;;;;;;;;;;;23.40;99.90;;;;;;5033352;28;19952;-61
2021/07/17 16:46:20;;;;;;;;;;;23.50;99.90;;;;;;5019171;28;19939;-60
2021/07/17 16:49:09;;;;;;;;;;;23.70;99.90;;;;;;5032677;28;20034;-61
2021/07/17 16:51:58;;;;;;;;;;;23.70;99.90;;;;;;5028329;28;19948;-61